createdAt,value
2024-03-05T00:01:38.590Z,99907.25
2024-03-05T00:04:06.609Z,99914.69
2024-03-05T00:06:34.262Z,99913.81
2024-03-05T00:09:01.648Z,99911.22
2024-03-05T00:11:29.204Z,99897.81
2024-03-05T00:13:59.323Z,99904.63
2024-03-05T00:16:27.987Z,99894.41
2024-03-05T00:18:55.460Z,99900.25
2024-03-05T00:21:23.178Z,99895.88
2024-03-05T00:23:50.809Z,99878.94
2024-03-05T00:26:19.406Z,99882.13
2024-03-05T00:28:46.904Z,99877.91
2024-03-05T00:31:15.951Z,99875.38
2024-03-05T00:33:43.409Z,99884.47
2024-03-05T00:36:10.719Z,99879.50
2024-03-05T00:38:38.023Z,99889.59
2024-03-05T00:41:05.252Z,99880.25
2024-03-05T00:43:32.685Z,99882.59
2024-03-05T00:46:01.687Z,99878.47
2024-03-05T00:48:30.532Z,99881.56
2024-03-05T00:50:57.953Z,99881.44
2024-03-05T00:53:25.419Z,99883.16
2024-03-05T00:55:53.013Z,99885.78
2024-03-05T00:58:20.370Z,99886.75
2024-03-05T01:00:48.428Z,99879.34
2024-03-05T01:03:16.318Z,99872.75
2024-03-05T01:05:45.223Z,99880.44
2024-03-05T01:08:12.651Z,99878.78
2024-03-05T01:10:40.508Z,99876.34
2024-03-05T01:13:09.008Z,99884.16
2024-03-05T01:15:36.266Z,99886.84
2024-03-05T01:18:04.564Z,99886.28
2024-03-05T01:20:31.892Z,99894.91
2024-03-05T01:23:00.770Z,99882.47
2024-03-05T01:25:28.216Z,99876.84
2024-03-05T01:27:55.605Z,99872.81
2024-03-05T01:30:23.535Z,99880.50
2024-03-05T01:32:52.691Z,99882.44
2024-03-05T01:35:22.625Z,99889.34
2024-03-05T01:37:50.054Z,99881.22
2024-03-05T01:40:20.862Z,99883.91
2024-03-05T01:42:48.577Z,99886.56
2024-03-05T01:45:19.878Z,99884.97
2024-03-05T01:47:49.267Z,99876.84
2024-03-05T01:50:17.474Z,99873.59
2024-03-05T01:52:45.453Z,99873.75
2024-03-05T01:55:15.976Z,99875.47
2024-03-05T01:57:47.462Z,99881.22
2024-03-05T02:00:21.988Z,99876.50
2024-03-05T02:02:50.787Z,99887.53
2024-03-05T02:05:19.004Z,99877.63
2024-03-05T02:07:47.301Z,99873.03
2024-03-05T02:10:15.417Z,99885.63
2024-03-05T02:12:44.348Z,99893.09
2024-03-05T02:15:12.639Z,99893.34
2024-03-05T02:17:40.957Z,99892.47
2024-03-05T02:20:11.310Z,99888.13
2024-03-05T02:22:40.389Z,99901.31
2024-03-05T02:25:09.784Z,99892.81
2024-03-05T02:27:38.604Z,99899.38
2024-03-05T02:30:12.088Z,99883.56
2024-03-05T02:32:44.193Z,99884.28
2024-03-05T02:35:14.942Z,99884.13
2024-03-05T02:37:44.020Z,99890.78
2024-03-05T02:40:14.906Z,99885.75
2024-03-05T02:42:43.016Z,99878.28
2024-03-05T02:45:12.501Z,99876.59
2024-03-05T02:47:44.062Z,99869.16
2024-03-05T02:50:12.165Z,99872.44
2024-03-05T02:52:43.023Z,99869.03
2024-03-05T02:55:12.478Z,99876.59
2024-03-05T02:57:43.655Z,99878.34
2024-03-05T03:00:21.561Z,99858.63
2024-03-05T03:02:52.510Z,99870.91
2024-03-05T03:05:23.213Z,99863.41
2024-03-05T03:07:50.908Z,99871.09
2024-03-05T03:10:20.370Z,99869.34
2024-03-05T03:12:49.997Z,99859.59
2024-03-05T03:15:18.901Z,99867.72
2024-03-05T03:17:46.320Z,99856.19
2024-03-05T03:20:17.289Z,99869.66
2024-03-05T03:22:45.251Z,99870.69
2024-03-05T03:25:12.785Z,99866.56
2024-03-05T03:27:42.027Z,99866.78
2024-03-05T03:30:15.466Z,99875.22
2024-03-05T03:32:42.774Z,99863.63
2024-03-05T03:35:12.079Z,99862.00
2024-03-05T03:37:39.480Z,99866.94
2024-03-05T03:40:10.318Z,99866.38
2024-03-05T03:42:37.577Z,99867.25
2024-03-05T03:45:09.071Z,99869.94
2024-03-05T03:47:37.224Z,99867.47
2024-03-05T03:50:05.333Z,99881.59
2024-03-05T03:52:34.270Z,99876.66
2024-03-05T03:55:01.799Z,99878.50
2024-03-05T03:57:29.879Z,99877.72
2024-03-05T03:59:57.827Z,99869.41
2024-03-05T04:02:26.442Z,99876.16
2024-03-05T04:04:54.118Z,99876.22
2024-03-05T04:07:22.644Z,99872.97
2024-03-05T04:09:51.602Z,99880.53
2024-03-05T04:12:18.900Z,99879.78
2024-03-05T04:14:46.232Z,99885.84
2024-03-05T04:17:15.621Z,99886.88
2024-03-05T04:19:44.335Z,99881.22
2024-03-05T04:22:11.887Z,99879.06
2024-03-05T04:24:41.360Z,99877.66
2024-03-05T04:27:12.856Z,99883.56
2024-03-05T04:29:43.257Z,99882.75
2024-03-05T04:32:10.839Z,99877.88
2024-03-05T04:34:41.613Z,99885.41
2024-03-05T04:37:12.148Z,99891.47
2024-03-05T04:39:43.089Z,99893.41
2024-03-05T04:42:13.131Z,99886.06
2024-03-05T04:44:43.207Z,99882.59
2024-03-05T04:47:10.840Z,99891.69
2024-03-05T04:49:38.331Z,99895.75
2024-03-05T04:52:06.021Z,99901.69
2024-03-05T04:54:36.127Z,99894.06
2024-03-05T04:57:05.690Z,99894.66
2024-03-05T04:59:33.681Z,99895.09
2024-03-05T05:02:01.079Z,99905.66
2024-03-05T05:04:28.551Z,99907.88
2024-03-05T05:06:56.994Z,99902.69
2024-03-05T05:09:24.993Z,99902.63
2024-03-05T05:11:53.685Z,99901.69
2024-03-05T05:14:21.008Z,99909.94
2024-03-05T05:16:48.807Z,99918.25
2024-03-05T05:19:17.855Z,99926.50
2024-03-05T05:21:48.844Z,99910.94
2024-03-05T05:24:16.231Z,99918.75
2024-03-05T05:26:44.180Z,99920.47
2024-03-05T05:29:20.232Z,99915.59
2024-03-05T05:31:54.309Z,99925.06
2024-03-05T05:34:21.635Z,99922.59
2024-03-05T05:36:48.972Z,99929.97
2024-03-05T05:39:16.350Z,99925.47
2024-03-05T05:41:43.669Z,99932.28
2024-03-05T05:44:12.588Z,99935.00
2024-03-05T05:46:40.144Z,99935.09
2024-03-05T05:49:07.539Z,99928.44
2024-03-05T05:51:35.051Z,99951.81
2024-03-05T05:54:02.369Z,99947.69
2024-03-05T05:56:29.793Z,99947.81
2024-03-05T05:58:57.217Z,99950.31
2024-03-05T06:01:26.535Z,99948.63
2024-03-05T06:03:54.615Z,99947.31
2024-03-05T06:06:22.022Z,99955.56
2024-03-05T06:08:49.404Z,99956.38
2024-03-05T06:11:17.113Z,99960.38
2024-03-05T06:13:45.214Z,99958.56
2024-03-05T06:16:12.606Z,99952.38
2024-03-05T06:18:41.425Z,99951.16
2024-03-05T06:21:08.981Z,99966.09
2024-03-05T06:23:37.176Z,99964.97
2024-03-05T06:26:05.124Z,99964.09
2024-03-05T06:28:33.392Z,99963.28
2024-03-05T06:31:00.987Z,99968.91
2024-03-05T06:33:28.358Z,99975.41
2024-03-05T06:35:59.329Z,99972.81
2024-03-05T06:38:26.913Z,99973.47
2024-03-05T06:40:56.102Z,99972.66
2024-03-05T06:43:34.137Z,99969.94
2024-03-05T06:46:03.828Z,99974.13
2024-03-05T06:48:34.106Z,99977.56
2024-03-05T06:51:06.166Z,99981.84
2024-03-05T06:53:51.994Z,99986.94
2024-03-05T06:56:37.840Z,99982.13
2024-03-05T06:59:05.938Z,99981.09
2024-03-05T07:01:34.234Z,99992.72
2024-03-05T07:04:02.970Z,99992.78
2024-03-05T07:06:31.895Z,100000.50
2024-03-05T07:09:01.389Z,100003.00
2024-03-05T07:11:29.397Z,99996.19
2024-03-05T07:13:59.198Z,99995.97
2024-03-05T07:16:26.818Z,100006.13
2024-03-05T07:18:54.858Z,100003.72
2024-03-05T07:21:24.488Z,100005.59
2024-03-05T07:23:55.062Z,100018.22
2024-03-05T07:26:24.544Z,100009.16
2024-03-05T07:28:53.750Z,100013.50
2024-03-05T07:31:21.636Z,100020.31
2024-03-05T07:33:52.936Z,100018.38
2024-03-05T07:36:21.481Z,100013.34
2024-03-05T07:38:48.926Z,100016.53
2024-03-05T07:41:27.252Z,100018.97
2024-03-05T07:44:02.049Z,100015.13
2024-03-05T07:46:30.878Z,100027.78
2024-03-05T07:48:58.421Z,100017.88
2024-03-05T07:51:29.132Z,100019.59
2024-03-05T07:54:00.763Z,100020.47
2024-03-05T07:56:29.706Z,100026.16
2024-03-05T07:59:00.104Z,100017.81
2024-03-05T08:01:31.783Z,100020.34
2024-03-05T08:04:00.042Z,100037.50
2024-03-05T08:06:27.456Z,100028.16
2024-03-05T08:08:54.809Z,100027.94
2024-03-05T08:11:22.401Z,100026.09
2024-03-05T08:13:51.266Z,100031.13
2024-03-05T08:16:18.639Z,100037.75
2024-03-05T08:18:47.315Z,100031.72
2024-03-05T08:21:15.059Z,100030.91
2024-03-05T08:23:42.825Z,100033.50
2024-03-05T08:26:10.892Z,100043.56
2024-03-05T08:28:38.238Z,100032.72
2024-03-05T08:31:09.408Z,100039.56
2024-03-05T08:33:36.763Z,100042.97
2024-03-05T08:36:04.913Z,100046.00
2024-03-05T08:38:32.450Z,100043.31
2024-03-05T08:41:00.550Z,100044.09
2024-03-05T08:43:28.220Z,100042.16
2024-03-05T08:45:55.669Z,100042.66
2024-03-05T08:48:24.793Z,100050.78
2024-03-05T08:50:52.360Z,100045.16
2024-03-05T08:53:20.240Z,100045.16
2024-03-05T08:55:47.800Z,100044.28
2024-03-05T08:58:15.456Z,100052.72
2024-03-05T09:00:44.033Z,100053.41
2024-03-05T09:03:15.000Z,100056.72
2024-03-05T09:05:46.793Z,100054.06
2024-03-05T09:08:15.666Z,100055.59
2024-03-05T09:10:46.040Z,100060.56
2024-03-05T09:13:13.620Z,100063.66
2024-03-05T09:15:44.099Z,100069.81
2024-03-05T09:18:15.855Z,100059.81
2024-03-05T09:20:46.302Z,100064.84
2024-03-05T09:23:13.861Z,100061.53
2024-03-05T09:25:43.663Z,100077.59
2024-03-05T09:28:12.630Z,100067.47
2024-03-05T09:30:41.021Z,100067.53
2024-03-05T09:33:12.179Z,100064.94
2024-03-05T09:35:41.013Z,100071.38
2024-03-05T09:38:10.132Z,100069.28
2024-03-05T09:40:40.300Z,100073.13
2024-03-05T09:43:08.973Z,100076.38
2024-03-05T09:45:38.227Z,100081.56
2024-03-05T09:48:08.033Z,100077.19
2024-03-05T09:50:37.023Z,100077.78
2024-03-05T09:53:05.232Z,100083.69
2024-03-05T09:55:34.534Z,100082.16
2024-03-05T09:58:07.229Z,100073.19
2024-03-05T10:00:38.716Z,100076.69
2024-03-05T10:03:07.302Z,100082.75
2024-03-05T10:05:34.554Z,100084.31
2024-03-05T10:08:01.909Z,100084.97
2024-03-05T10:10:38.683Z,100086.50
2024-03-05T10:13:06.859Z,100080.53
2024-03-05T10:15:38.559Z,100088.97
2024-03-05T10:18:07.899Z,100086.63
2024-03-05T10:20:39.835Z,100088.97
2024-03-05T10:23:09.401Z,100086.63
2024-03-05T10:25:41.281Z,100087.44
2024-03-05T10:28:11.712Z,100089.44
2024-03-05T10:30:44.059Z,100095.34
2024-03-05T10:33:12.192Z,100094.31
2024-03-05T10:35:41.806Z,100088.97
2024-03-05T10:38:11.893Z,100079.53
2024-03-05T10:40:46.121Z,100088.75
2024-03-05T10:43:19.898Z,100092.81
2024-03-05T10:45:48.616Z,100095.19
2024-03-05T10:48:19.586Z,100090.88
2024-03-05T10:50:50.320Z,100088.38
2024-03-05T10:53:19.722Z,100092.53
2024-03-05T10:55:52.835Z,100090.06
2024-03-05T10:58:40.919Z,100090.56
2024-03-05T11:01:14.581Z,100091.88
2024-03-05T11:03:43.224Z,100089.78
2024-03-05T11:06:10.877Z,100090.47
2024-03-05T11:08:38.651Z,100091.09
2024-03-05T11:11:11.293Z,100100.31
2024-03-05T11:13:41.895Z,100092.56
2024-03-05T11:16:10.425Z,100100.06
2024-03-05T11:18:39.757Z,100085.06
2024-03-05T11:21:08.507Z,100096.56
2024-03-05T11:23:38.332Z,100095.25
2024-03-05T11:26:10.105Z,100100.69
2024-03-05T11:28:38.371Z,100100.19
2024-03-05T11:31:15.942Z,100087.44
2024-03-05T11:33:45.171Z,100095.50
2024-03-05T11:36:24.006Z,100095.84
2024-03-05T11:39:16.472Z,100091.19
2024-03-05T11:41:46.830Z,100099.91
2024-03-05T11:44:15.146Z,100086.09
2024-03-05T11:46:44.511Z,100088.22
2024-03-05T11:49:12.357Z,100086.91
2024-03-05T11:51:41.584Z,100095.84
2024-03-05T11:54:12.704Z,100096.50
2024-03-05T11:56:42.203Z,100100.06
2024-03-05T11:59:11.022Z,100091.78
2024-03-05T12:01:40.365Z,100087.06
2024-03-05T12:04:09.633Z,100097.34
2024-03-05T12:06:40.487Z,100087.06
2024-03-05T12:09:12.093Z,100091.94
2024-03-05T12:11:39.475Z,100088.94
2024-03-05T12:14:11.142Z,100101.22
2024-03-05T12:16:38.957Z,100096.97
2024-03-05T12:19:08.163Z,100099.69
2024-03-05T12:21:37.910Z,100100.44
2024-03-05T12:24:06.677Z,100097.91
2024-03-05T12:26:35.410Z,100094.88
2024-03-05T12:29:03.933Z,100107.81
2024-03-05T12:31:33.243Z,100105.34
2024-03-05T12:34:00.673Z,100096.75
2024-03-05T12:36:28.079Z,100095.84
2024-03-05T12:38:58.554Z,100110.97
2024-03-05T12:41:28.097Z,100110.84
2024-03-05T12:43:57.094Z,100112.38
2024-03-05T12:46:25.051Z,100104.72
2024-03-05T12:48:59.966Z,100108.88
2024-03-05T12:51:27.395Z,100113.41
2024-03-05T12:54:02.285Z,100110.34
2024-03-05T12:56:41.756Z,100110.34
2024-03-05T12:59:09.168Z,100107.75
2024-03-05T13:01:39.269Z,100116.19
2024-03-05T13:04:08.104Z,100113.09
2024-03-05T13:06:35.433Z,100119.78
2024-03-05T13:09:02.740Z,100106.34
2024-03-05T13:11:30.252Z,100110.41
2024-03-05T13:14:01.649Z,100114.66
2024-03-05T13:16:29.042Z,100112.78
2024-03-05T13:18:56.392Z,100116.19
2024-03-05T13:21:25.044Z,100120.66
2024-03-05T13:23:52.283Z,100123.34
2024-03-05T13:26:19.824Z,100127.47
2024-03-05T13:28:48.808Z,100127.47
2024-03-05T13:31:16.520Z,100130.09
2024-03-05T13:33:43.977Z,100125.13
2024-03-05T13:36:13.580Z,100137.16
2024-03-05T13:38:42.519Z,100137.31
2024-03-05T13:41:10.012Z,100132.28
2024-03-05T13:43:37.615Z,100128.28
2024-03-05T13:46:05.294Z,100138.94
2024-03-05T13:48:32.696Z,100143.66
2024-03-05T13:51:03.294Z,100146.41
2024-03-05T13:53:30.594Z,100135.69
2024-03-05T13:55:59.426Z,100134.06
2024-03-05T13:58:26.872Z,100143.63
2024-03-05T14:00:54.357Z,100147.88
2024-03-05T14:03:21.651Z,100142.91
2024-03-05T14:05:49.050Z,100149.81
2024-03-05T14:08:16.437Z,100149.94
2024-03-05T14:10:43.872Z,100148.91
2024-03-05T14:13:15.510Z,100149.66
2024-03-05T14:15:43.423Z,100152.91
2024-03-05T14:18:11.000Z,100157.22
2024-03-05T14:20:40.384Z,100160.63
2024-03-05T14:23:07.986Z,100160.56
2024-03-05T14:25:35.436Z,100151.41
2024-03-05T14:28:03.239Z,100165.72
2024-03-05T14:30:32.876Z,100166.72
2024-03-05T14:33:01.082Z,100178.56
2024-03-05T14:35:28.805Z,100175.44
2024-03-05T14:37:56.388Z,100180.50
2024-03-05T14:40:23.689Z,100179.84
2024-03-05T14:42:51.603Z,100171.16
2024-03-05T14:45:20.028Z,100190.00
2024-03-05T14:47:49.700Z,100178.69
2024-03-05T14:50:22.812Z,100191.41
2024-03-05T14:52:50.403Z,100190.59
2024-03-05T14:55:18.056Z,100188.41
2024-03-05T14:57:48.738Z,100189.56
2024-03-05T15:00:17.112Z,100200.00
2024-03-05T15:02:47.559Z,100199.41
2024-03-05T15:05:16.859Z,100205.44
2024-03-05T15:07:45.117Z,100206.47
2024-03-05T15:10:13.816Z,100207.31
2024-03-05T15:12:42.098Z,100204.78
2024-03-05T15:15:10.442Z,100214.84
2024-03-05T15:17:38.204Z,100214.78
2024-03-05T15:20:11.804Z,100218.47
2024-03-05T15:22:42.853Z,100222.84
2024-03-05T15:25:11.526Z,100228.03
2024-03-05T15:27:41.035Z,100227.25
2024-03-05T15:30:15.574Z,100224.34
2024-03-05T15:32:47.602Z,100233.81
2024-03-05T15:35:16.771Z,100239.25
2024-03-05T15:37:47.182Z,100237.97
2024-03-05T15:40:16.730Z,100247.28
2024-03-05T15:42:45.526Z,100241.63
2024-03-05T15:45:13.042Z,100247.69
2024-03-05T15:47:44.411Z,100258.66
2024-03-05T15:50:23.546Z,100261.38
2024-03-05T15:52:53.586Z,100271.59
2024-03-05T15:55:21.914Z,100270.09
2024-03-05T15:58:02.962Z,100266.97
2024-03-05T16:00:36.373Z,100280.53
2024-03-05T16:03:09.595Z,100282.44
2024-03-05T16:05:47.675Z,100275.97
2024-03-05T16:08:25.526Z,100280.28
2024-03-05T16:10:53.688Z,100291.28
2024-03-05T16:13:21.593Z,100290.66
2024-03-05T16:15:49.687Z,100288.38
2024-03-05T16:18:17.643Z,100298.69
2024-03-05T16:20:45.376Z,100305.69
2024-03-05T16:23:12.814Z,100299.19
2024-03-05T16:25:41.817Z,100308.44
2024-03-05T16:28:18.343Z,100311.00
2024-03-05T16:30:45.803Z,100307.75
2024-03-05T16:33:13.154Z,100316.97
2024-03-05T16:35:40.580Z,100308.66
2024-03-05T16:38:08.703Z,100316.28
2024-03-05T16:40:38.113Z,100321.31
2024-03-05T16:43:11.207Z,100322.22
2024-03-05T16:45:39.797Z,100327.25
2024-03-05T16:48:10.631Z,100328.13
2024-03-05T16:50:40.471Z,100331.44
2024-03-05T16:53:10.521Z,100330.53
2024-03-05T16:55:39.026Z,100333.69
2024-03-05T16:58:12.586Z,100341.22
2024-03-05T17:00:48.601Z,100339.50
2024-03-05T17:03:18.547Z,100330.53
2024-03-05T17:05:52.121Z,100337.44
2024-03-05T17:08:25.063Z,100339.03
2024-03-05T17:10:55.140Z,100340.75
2024-03-05T17:13:28.211Z,100334.91
2024-03-05T17:16:01.553Z,100336.53
2024-03-05T17:18:30.768Z,100338.94
2024-03-05T17:21:01.537Z,100343.97
2024-03-05T17:23:30.761Z,100343.19
2024-03-05T17:25:58.853Z,100342.31
2024-03-05T17:28:28.525Z,100342.31
2024-03-05T17:30:57.594Z,100344.78
2024-03-05T17:33:25.522Z,100359.13
2024-03-05T17:35:56.506Z,100345.94
2024-03-05T17:38:24.141Z,100351.06
2024-03-05T17:40:52.318Z,100359.47
2024-03-05T17:43:20.800Z,100356.09
2024-03-05T17:45:50.217Z,100362.75
2024-03-05T17:48:17.814Z,100354.38
2024-03-05T17:50:46.161Z,100363.50
2024-03-05T17:53:14.307Z,100354.38
2024-03-05T17:55:41.862Z,100352.59
2024-03-05T17:58:09.657Z,100366.78
2024-03-05T18:00:46.853Z,100365.97
2024-03-05T18:03:16.441Z,100370.94
2024-03-05T18:05:44.235Z,100369.31
2024-03-05T18:08:12.051Z,100372.69
2024-03-05T18:10:39.880Z,100364.28
2024-03-05T18:13:08.062Z,100372.59
2024-03-05T18:15:35.967Z,100380.88
2024-03-05T18:18:07.549Z,100375.84
2024-03-05T18:20:37.170Z,100375.84
2024-03-05T18:23:06.360Z,100379.94
2024-03-05T18:25:37.898Z,100380.88
2024-03-05T18:28:06.951Z,100373.72
2024-03-05T18:30:37.079Z,100376.41
2024-03-05T18:33:09.816Z,100375.78
2024-03-05T18:35:41.746Z,100364.16
2024-03-05T18:38:20.557Z,100367.50
2024-03-05T18:40:58.263Z,100369.19
2024-03-05T18:43:29.733Z,100369.88
2024-03-05T18:45:58.120Z,100375.59
2024-03-05T18:48:25.935Z,100372.34
2024-03-05T18:50:55.385Z,100369.88
2024-03-05T18:53:32.412Z,100368.38
2024-03-05T18:56:07.838Z,100371.75
2024-03-05T18:58:35.644Z,100376.91
2024-03-05T19:01:03.130Z,100381.91
2024-03-05T19:03:30.634Z,100376.91
2024-03-05T19:06:15.767Z,100382.78
2024-03-05T19:08:43.293Z,100382.91
2024-03-05T19:11:12.615Z,100377.25
2024-03-05T19:13:41.920Z,100372.31
2024-03-05T19:16:09.558Z,100376.50
2024-03-05T19:18:36.941Z,100379.75
2024-03-05T19:21:06.942Z,100377.13
2024-03-05T19:23:34.306Z,100371.31
2024-03-05T19:26:03.540Z,100376.34
2024-03-05T19:28:34.879Z,100377.25
2024-03-05T19:31:13.177Z,100379.09
2024-03-05T19:33:41.022Z,100377.56
2024-03-05T19:36:11.190Z,100377.66
2024-03-05T19:38:41.841Z,100377.06
2024-03-05T19:41:11.303Z,100382.09
2024-03-05T19:43:42.087Z,100383.69
2024-03-05T19:46:09.585Z,100383.81
2024-03-05T19:48:37.754Z,100389.78
2024-03-05T19:51:07.630Z,100391.75
2024-03-05T19:53:36.430Z,100378.50
2024-03-05T19:56:05.147Z,100381.84
2024-03-05T19:58:32.430Z,100379.38
2024-03-05T20:00:59.790Z,100390.97
2024-03-05T20:03:29.069Z,100380.13
2024-03-05T20:05:56.949Z,100386.78
2024-03-05T20:08:25.297Z,100390.03
2024-03-05T20:10:54.053Z,100386.53
2024-03-05T20:13:21.516Z,100389.69
2024-03-05T20:15:48.867Z,100388.81
2024-03-05T20:18:16.314Z,100392.06
2024-03-05T20:20:45.269Z,100384.38
2024-03-05T20:23:12.840Z,100389.34
2024-03-05T20:25:40.405Z,100394.38
2024-03-05T20:28:13.912Z,100389.53
2024-03-05T20:30:45.999Z,100396.41
2024-03-05T20:33:13.597Z,100390.75
2024-03-05T20:35:41.414Z,100388.38
2024-03-05T20:38:09.223Z,100390.03
2024-03-05T20:40:37.136Z,100388.38
2024-03-05T20:43:07.345Z,100389.25
2024-03-05T20:45:37.846Z,100384.28
2024-03-05T20:48:06.902Z,100379.38
2024-03-05T20:50:34.521Z,100389.41
2024-03-05T20:53:02.057Z,100386.84
2024-03-05T20:55:29.725Z,100385.22
2024-03-05T20:57:57.110Z,100391.78
2024-03-05T21:00:27.003Z,100396.06
2024-03-05T21:02:57.176Z,100389.41
2024-03-05T21:05:25.057Z,100392.09
2024-03-05T21:07:55.416Z,100391.38
2024-03-05T21:10:23.226Z,100383.78
2024-03-05T21:12:50.877Z,100400.47
2024-03-05T21:15:18.277Z,100399.78
2024-03-05T21:17:45.689Z,100394.84
2024-03-05T21:20:17.029Z,100393.22
2024-03-05T21:22:45.356Z,100392.41
2024-03-05T21:25:13.148Z,100394.03
2024-03-05T21:27:41.223Z,100389.94
2024-03-05T21:30:10.071Z,100390.75
2024-03-05T21:32:37.727Z,100394.84
2024-03-05T21:35:09.649Z,100396.59
2024-03-05T21:37:41.494Z,100396.81
2024-03-05T21:40:14.467Z,100397.63
2024-03-05T21:42:45.084Z,100401.13
2024-03-05T21:45:16.333Z,100400.28
2024-03-05T21:47:47.623Z,100395.44
2024-03-05T21:50:15.326Z,100399.47
2024-03-05T21:52:47.661Z,100395.31
2024-03-05T21:55:16.676Z,100403.72
2024-03-05T21:57:45.043Z,100397.00
2024-03-05T22:00:13.386Z,100402.84
2024-03-05T22:02:41.156Z,100394.50
2024-03-05T22:05:10.474Z,100407.09
2024-03-05T22:07:38.391Z,100406.22
2024-03-05T22:10:08.558Z,100413.56
2024-03-05T22:12:38.453Z,100408.72
2024-03-05T22:15:07.809Z,100411.47
2024-03-05T22:17:36.670Z,100402.28
2024-03-05T22:20:06.069Z,100413.06
2024-03-05T22:22:33.511Z,100412.38
2024-03-05T22:25:01.674Z,100415.66
2024-03-05T22:27:31.069Z,100411.47
2024-03-05T22:29:58.513Z,100414.84
2024-03-05T22:32:26.077Z,100414.09
2024-03-05T22:34:53.849Z,100416.66
2024-03-05T22:37:21.325Z,100416.88
2024-03-05T22:39:48.859Z,100425.38
2024-03-05T22:42:16.758Z,100418.91
2024-03-05T22:44:45.515Z,100419.88
2024-03-05T22:47:12.854Z,100415.72
2024-03-05T22:49:40.171Z,100417.63
2024-03-05T22:52:08.086Z,100416.81
2024-03-05T22:54:35.375Z,100419.31
2024-03-05T22:57:03.456Z,100427.53
2024-03-05T22:59:30.939Z,100429.16
2024-03-05T23:01:59.778Z,100436.00
2024-03-05T23:04:27.120Z,100424.41
2024-03-05T23:06:54.351Z,100431.06
2024-03-05T23:09:21.674Z,100433.41
2024-03-05T23:11:49.240Z,100427.59
2024-03-05T23:14:16.737Z,100430.91
2024-03-05T23:16:44.432Z,100428.56
2024-03-05T23:19:13.243Z,100433.59
2024-03-05T23:21:40.564Z,100423.56
2024-03-05T23:24:10.325Z,100418.56
2024-03-05T23:26:38.356Z,100427.97
2024-03-05T23:29:05.800Z,100427.97
2024-03-05T23:31:33.128Z,100424.69
2024-03-05T23:34:00.463Z,100430.53
2024-03-05T23:36:29.324Z,100425.63
2024-03-05T23:38:56.512Z,100428.84
2024-03-05T23:41:29.286Z,100435.50
2024-03-05T23:43:59.597Z,100433.97
2024-03-05T23:46:27.116Z,100435.69
2024-03-05T23:48:54.423Z,100440.72
2024-03-05T23:51:21.856Z,100430.97
2024-03-05T23:53:50.582Z,100442.69
2024-03-05T23:56:19.119Z,100443.38
2024-03-05T23:58:46.530Z,100441.63
